Portada
METAR-TAF:

METAR-TAF

Aeropuertos :

Gibraltar, Gibraltar

Aeropuerto de Gibraltar

latitud: 36-09N, longitud: 005-21W, altitud: 5 m

Observación

El informe se hizo hace 1 hora y 3 minutos, a las 01:50 UTC
Viento 13 kt del oeste-suroeste
Temperatura 13°C
Humedad 77%
Presión 1021 hPa
Visibilidad 10 km o más

METAR: LXGB 180150Z AUTO 25013KT 9999 // NCD 13/09 Q1021

Hora: 03:53 (02:53 UTC)

Pronóstico

El informe se hizo hace 13 horas y 38 minutos, a las 13:15 UTC
Pronóstico válido del 17 a las 15 UTC al 17 a las 24 UTC
Viento 14 kt del oeste
Visibilidad 10 km o más
Escasas nubes a una altura de 3000 ft
Probabilidad 30% :
Temporalmente
del 17 a las 15 UTC al 17 a las 18 UTC
Viento 16 kt del oeste con ráfagas de 26 kt

TAF: LXGB 171315Z 1715/1724 27014KT 9999 FEW030 PROB30 TEMPO 1715/1718 28016G26KT

Observaciones y pronósticos meteorológicos de más de 4000 aeropuertos (mensajes METAR y TAF).

Los puntos amarillos y rojos representan las estaciones disponibles.

Ponga el ratón en el punto deseado para ver el nombre de la estación.

Haga clic para ver las observaciones y los pronósticos meteorológicos.

Para cambiar el mapa : haga clic en los botones verdes con una cruz de color negro para hacer un zoom, en el botón verde con un guión para alejar o en las flechas verdes para mapas adyacentes.


METAR-TAF: